sensor_id;sensor_type;location;lat;lon;timestamp;pressure;altitude;pressure_sealevel;temperature;humidity
55077;BME280;40971;44.702;11.030;2024-03-02T00:08:04;100623.69;;;10.40;100.00
55077;BME280;40971;44.702;11.030;2024-03-02T00:18:09;100631.56;;;10.40;100.00
55077;BME280;40971;44.702;11.030;2024-03-02T00:28:21;100633.22;;;10.41;100.00
55077;BME280;40971;44.702;11.030;2024-03-02T00:38:24;100635.84;;;10.41;100.00
55077;BME280;40971;44.702;11.030;2024-03-02T00:48:27;100644.19;;;10.44;100.00
55077;BME280;40971;44.702;11.030;2024-03-02T00:58:30;100644.06;;;10.38;100.00
55077;BME280;40971;44.702;11.030;2024-03-02T01:08:31;100643.72;;;10.33;100.00
55077;BME280;40971;44.702;11.030;2024-03-02T01:18:35;100645.69;;;10.31;100.00
55077;BME280;40971;44.702;11.030;2024-03-02T01:28:38;100648.28;;;10.23;100.00
55077;BME280;40971;44.702;11.030;2024-03-02T01:38:39;100651.91;;;10.22;100.00
55077;BME280;40971;44.702;11.030;2024-03-02T01:48:40;100653.22;;;10.18;100.00
55077;BME280;40971;44.702;11.030;2024-03-02T01:58:44;100649.63;;;10.19;100.00
55077;BME280;40971;44.702;11.030;2024-03-02T02:08:46;100657.16;;;10.22;100.00
55077;BME280;40971;44.702;11.030;2024-03-02T02:18:49;100637.97;;;10.21;100.00
55077;BME280;40971;44.702;11.030;2024-03-02T02:28:51;100635.47;;;10.20;100.00
55077;BME280;40971;44.702;11.030;2024-03-02T02:38:54;100632.53;;;10.15;100.00
55077;BME280;40971;44.702;11.030;2024-03-02T02:48:57;100631.56;;;10.16;100.00
55077;BME280;40971;44.702;11.030;2024-03-02T02:58:59;100636.81;;;10.16;100.00
55077;BME280;40971;44.702;11.030;2024-03-02T03:09:01;100643.22;;;10.13;100.00
55077;BME280;40971;44.702;11.030;2024-03-02T03:19:04;100640.59;;;10.13;100.00
55077;BME280;40971;44.702;11.030;2024-03-02T03:29:05;100639.41;;;10.08;100.00
55077;BME280;40971;44.702;11.030;2024-03-02T03:39:09;100652.16;;;10.03;100.00
55077;BME280;40971;44.702;11.030;2024-03-02T03:49:11;100650.22;;;10.05;100.00
55077;BME280;40971;44.702;11.030;2024-03-02T03:59:12;100656.44;;;9.95;100.00
55077;BME280;40971;44.702;11.030;2024-03-02T04:09:13;100654.25;;;9.91;100.00
55077;BME280;40971;44.702;11.030;2024-03-02T04:19:15;100664.78;;;9.91;100.00
55077;BME280;40971;44.702;11.030;2024-03-02T04:29:16;100671.69;;;9.92;100.00
55077;BME280;40971;44.702;11.030;2024-03-02T04:39:17;100681.97;;;9.85;100.00
55077;BME280;40971;44.702;11.030;2024-03-02T04:49:20;100689.72;;;9.87;100.00
55077;BME280;40971;44.702;11.030;2024-03-02T04:59:22;100703.34;;;9.82;100.00
55077;BME280;40971;44.702;11.030;2024-03-02T05:09:23;100705.28;;;9.88;100.00
55077;BME280;40971;44.702;11.030;2024-03-02T05:19:25;100719.22;;;9.81;100.00
55077;BME280;40971;44.702;11.030;2024-03-02T05:29:26;100729.69;;;9.73;100.00
55077;BME280;40971;44.702;11.030;2024-03-02T05:39:29;100731.34;;;9.74;100.00
55077;BME280;40971;44.702;11.030;2024-03-02T05:49:32;100742.34;;;9.77;100.00
55077;BME280;40971;44.702;11.030;2024-03-02T05:59:34;100748.72;;;9.75;100.00
55077;BME280;40971;44.702;11.030;2024-03-02T06:09:35;100762.72;;;9.83;100.00
55077;BME280;40971;44.702;11.030;2024-03-02T06:19:36;100759.78;;;9.86;100.00
55077;BME280;40971;44.702;11.030;2024-03-02T06:29:37;100771.25;;;9.85;100.00
55077;BME280;40971;44.702;11.030;2024-03-02T06:39:41;100783.75;;;9.91;100.00
55077;BME280;40971;44.702;11.030;2024-03-02T06:49:42;100797.72;;;9.92;100.00
55077;BME280;40971;44.702;11.030;2024-03-02T06:59:44;100802.09;;;9.83;100.00
55077;BME280;40971;44.702;11.030;2024-03-02T07:09:46;100818.34;;;9.79;100.00
55077;BME280;40971;44.702;11.030;2024-03-02T07:19:49;100823.28;;;9.82;100.00
55077;BME280;40971;44.702;11.030;2024-03-02T07:29:52;100840.63;;;10.09;100.00
55077;BME280;40971;44.702;11.030;2024-03-02T07:39:53;100849.41;;;10.17;100.00
55077;BME280;40971;44.702;11.030;2024-03-02T07:49:55;100850.31;;;10.34;100.00
55077;BME280;40971;44.702;11.030;2024-03-02T07:59:57;100865.00;;;10.52;100.00
55077;BME280;40971;44.702;11.030;2024-03-02T08:10:03;100863.75;;;10.73;100.00
55077;BME280;40971;44.702;11.030;2024-03-02T08:20:06;100867.41;;;10.80;100.00
55077;BME280;40971;44.702;11.030;2024-03-02T08:30:08;100872.19;;;10.92;100.00
55077;BME280;40971;44.702;11.030;2024-03-02T08:40:14;100870.03;;;10.88;100.00
55077;BME280;40971;44.702;11.030;2024-03-02T08:50:18;100872.38;;;10.99;100.00
55077;BME280;40971;44.702;11.030;2024-03-02T09:00:21;100884.88;;;11.05;100.00
55077;BME280;40971;44.702;11.030;2024-03-02T09:10:24;100877.00;;;11.37;100.00
55077;BME280;40971;44.702;11.030;2024-03-02T09:20:27;100876.16;;;11.37;100.00
55077;BME280;40971;44.702;11.030;2024-03-02T09:30:30;100882.25;;;11.53;100.00
55077;BME280;40971;44.702;11.030;2024-03-02T09:40:32;100893.94;;;11.43;100.00
55077;BME280;40971;44.702;11.030;2024-03-02T09:50:33;100890.50;;;11.58;100.00
55077;BME280;40971;44.702;11.030;2024-03-02T10:00:34;100892.97;;;11.52;100.00
55077;BME280;40971;44.702;11.030;2024-03-02T10:10:39;100881.47;;;11.53;100.00
55077;BME280;40971;44.702;11.030;2024-03-02T10:20:41;100884.94;;;11.78;100.00
55077;BME280;40971;44.702;11.030;2024-03-02T10:30:42;100883.59;;;11.82;100.00
55077;BME280;40971;44.702;11.030;2024-03-02T10:40:47;100906.59;;;12.04;100.00
55077;BME280;40971;44.702;11.030;2024-03-02T10:50:48;100911.72;;;11.89;100.00
55077;BME280;40971;44.702;11.030;2024-03-02T11:00:49;100895.38;;;12.10;100.00
55077;BME280;40971;44.702;11.030;2024-03-02T11:10:56;100893.63;;;12.80;100.00
55077;BME280;40971;44.702;11.030;2024-03-02T11:21:02;100869.59;;;12.75;100.00
55077;BME280;40971;44.702;11.030;2024-03-02T11:31:05;100875.66;;;13.14;100.00
55077;BME280;40971;44.702;11.030;2024-03-02T11:41:08;100865.88;;;13.23;100.00
55077;BME280;40971;44.702;11.030;2024-03-02T11:51:13;100863.75;;;12.88;100.00
55077;BME280;40971;44.702;11.030;2024-03-02T12:01:16;100852.78;;;12.99;100.00
55077;BME280;40971;44.702;11.030;2024-03-02T12:11:20;100847.97;;;13.10;100.00
55077;BME280;40971;44.702;11.030;2024-03-02T12:21:23;100841.69;;;13.11;100.00
55077;BME280;40971;44.702;11.030;2024-03-02T12:31:26;100836.41;;;13.11;100.00
55077;BME280;40971;44.702;11.030;2024-03-02T12:41:29;100831.63;;;13.29;100.00
55077;BME280;40971;44.702;11.030;2024-03-02T12:51:32;100831.63;;;13.29;100.00
55077;BME280;40971;44.702;11.030;2024-03-02T13:01:35;100828.22;;;13.43;100.00
55077;BME280;40971;44.702;11.030;2024-03-02T13:11:37;100815.44;;;13.32;98.29
55077;BME280;40971;44.702;11.030;2024-03-02T13:21:39;100822.03;;;13.36;98.47
55077;BME280;40971;44.702;11.030;2024-03-02T13:31:43;100821.84;;;13.15;100.00
55077;BME280;40971;44.702;11.030;2024-03-02T13:41:44;100819.44;;;13.06;100.00
55077;BME280;40971;44.702;11.030;2024-03-02T13:51:54;100820.22;;;13.14;100.00
55077;BME280;40971;44.702;11.030;2024-03-02T14:01:56;100809.81;;;13.13;99.22
55077;BME280;40971;44.702;11.030;2024-03-02T14:11:58;100794.66;;;13.29;100.00
55077;BME280;40971;44.702;11.030;2024-03-02T14:22:02;100802.38;;;14.98;94.82
55077;BME280;40971;44.702;11.030;2024-03-02T14:32:04;100800.50;;;15.41;91.54
55077;BME280;40971;44.702;11.030;2024-03-02T14:42:05;100803.19;;;14.56;91.47
55077;BME280;40971;44.702;11.030;2024-03-02T14:52:08;100814.78;;;13.68;94.01
55077;BME280;40971;44.702;11.030;2024-03-02T15:02:11;100816.53;;;13.90;94.97
55077;BME280;40971;44.702;11.030;2024-03-02T15:12:12;100834.38;;;14.02;93.83
55077;BME280;40971;44.702;11.030;2024-03-02T15:22:14;100836.66;;;13.91;93.92
55077;BME280;40971;44.702;11.030;2024-03-02T15:32:16;100827.44;;;14.01;93.01
55077;BME280;40971;44.702;11.030;2024-03-02T15:42:17;100826.44;;;13.59;98.48
55077;BME280;40971;44.702;11.030;2024-03-02T15:52:18;100815.06;;;13.87;96.34
55077;BME280;40971;44.702;11.030;2024-03-02T16:02:20;100815.22;;;13.71;100.00
55077;BME280;40971;44.702;11.030;2024-03-02T16:12:21;100820.78;;;13.62;100.00
55077;BME280;40971;44.702;11.030;2024-03-02T16:22:24;100817.66;;;12.98;100.00
55077;BME280;40971;44.702;11.030;2024-03-02T16:32:28;100829.84;;;12.76;100.00
55077;BME280;40971;44.702;11.030;2024-03-02T16:42:30;100843.72;;;12.40;100.00
55077;BME280;40971;44.702;11.030;2024-03-02T16:52:33;100849.69;;;12.25;100.00
55077;BME280;40971;44.702;11.030;2024-03-02T17:02:36;100865.47;;;11.95;100.00
55077;BME280;40971;44.702;11.030;2024-03-02T17:12:38;100884.75;;;11.71;100.00
55077;BME280;40971;44.702;11.030;2024-03-02T17:22:41;100875.34;;;11.60;100.00
55077;BME280;40971;44.702;11.030;2024-03-02T17:32:42;100882.44;;;11.44;100.00
55077;BME280;40971;44.702;11.030;2024-03-02T17:42:45;100889.19;;;11.38;100.00
55077;BME280;40971;44.702;11.030;2024-03-02T17:52:48;100888.03;;;11.25;100.00
55077;BME280;40971;44.702;11.030;2024-03-02T18:02:50;100885.81;;;10.88;100.00
55077;BME280;40971;44.702;11.030;2024-03-02T18:12:53;100885.81;;;10.80;100.00
55077;BME280;40971;44.702;11.030;2024-03-02T18:22:54;100904.31;;;10.28;100.00
55077;BME280;40971;44.702;11.030;2024-03-02T18:32:58;100912.72;;;10.32;100.00
55077;BME280;40971;44.702;11.030;2024-03-02T18:42:59;100923.75;;;10.35;100.00
55077;BME280;40971;44.702;11.030;2024-03-02T18:53:03;100937.19;;;9.89;100.00
55077;BME280;40971;44.702;11.030;2024-03-02T19:03:06;100928.69;;;10.13;100.00
55077;BME280;40971;44.702;11.030;2024-03-02T19:13:08;100946.22;;;10.30;100.00
55077;BME280;40971;44.702;11.030;2024-03-02T19:23:09;100936.63;;;10.21;100.00
55077;BME280;40971;44.702;11.030;2024-03-02T19:33:10;100917.44;;;10.28;100.00
55077;BME280;40971;44.702;11.030;2024-03-02T19:43:15;100915.81;;;10.02;100.00
55077;BME280;40971;44.702;11.030;2024-03-02T19:53:19;100935.81;;;10.03;100.00
55077;BME280;40971;44.702;11.030;2024-03-02T20:03:20;100935.69;;;9.86;100.00
55077;BME280;40971;44.702;11.030;2024-03-02T20:13:24;100937.38;;;9.87;100.00
55077;BME280;40971;44.702;11.030;2024-03-02T20:23:26;100923.88;;;9.82;100.00
55077;BME280;40971;44.702;11.030;2024-03-02T20:33:27;100902.00;;;9.56;100.00
55077;BME280;40971;44.702;11.030;2024-03-02T20:43:32;100909.28;;;9.62;100.00
55077;BME280;40971;44.702;11.030;2024-03-02T20:53:35;100915.88;;;9.31;100.00
55077;BME280;40971;44.702;11.030;2024-03-02T21:03:36;100908.00;;;9.13;100.00
55077;BME280;40971;44.702;11.030;2024-03-02T21:13:41;100927.34;;;9.12;100.00
55077;BME280;40971;44.702;11.030;2024-03-02T21:23:44;100933.91;;;8.44;100.00
55077;BME280;40971;44.702;11.030;2024-03-02T21:33:45;100938.97;;;8.83;100.00
55077;BME280;40971;44.702;11.030;2024-03-02T21:43:48;100922.38;;;8.37;100.00
55077;BME280;40971;44.702;11.030;2024-03-02T21:53:49;100937.38;;;8.35;100.00
55077;BME280;40971;44.702;11.030;2024-03-02T22:03:51;100941.13;;;8.23;100.00
55077;BME280;40971;44.702;11.030;2024-03-02T22:13:52;100943.94;;;8.02;100.00
55077;BME280;40971;44.702;11.030;2024-03-02T22:23:54;100939.72;;;7.34;100.00
55077;BME280;40971;44.702;11.030;2024-03-02T22:33:56;100932.97;;;7.22;100.00
55077;BME280;40971;44.702;11.030;2024-03-02T22:43:57;100947.56;;;7.34;100.00
55077;BME280;40971;44.702;11.030;2024-03-02T22:54:02;100957.16;;;7.05;100.00
55077;BME280;40971;44.702;11.030;2024-03-02T23:04:04;100936.94;;;7.07;100.00
55077;BME280;40971;44.702;11.030;2024-03-02T23:14:06;100949.16;;;6.97;100.00
55077;BME280;40971;44.702;11.030;2024-03-02T23:24:09;100930.47;;;7.21;100.00
55077;BME280;40971;44.702;11.030;2024-03-02T23:34:12;100916.34;;;7.42;100.00
55077;BME280;40971;44.702;11.030;2024-03-02T23:44:14;100903.81;;;7.36;100.00
55077;BME280;40971;44.702;11.030;2024-03-02T23:54:16;100908.63;;;7.22;100.00
